Horn Lake, Mississippi
Current Conditions -  °F | °C
As of 3:54 AM on Tuesday 27 Jan 2015 (Local Time) from KMEM Reporting Station
Clear Clear  
Wind Chill: 42°   Ceiling: Unl
Heat Index: 42°   Visibility: 10mi
Dew Point: 33°   Wind: 3mph
Humidity: 70%   Direction: 270°W
Pressure: 29.98"   Gusts: NA
Location:  34.96°N, 90.05°W
Report Text: KMEM 270954Z 27003KT 10SM CLR 06/01 A2998 RMK AO2 SLP153 T00560006 $
Loading
Personal Weather Stations






























Interactive Weather Map New forecast layout! Learn more

10-Day Weather Forecast

Advertisements
Track Severe Weather on mobile